BMW weather

Bordj Badji Mokhtar Airport
Bordj Badji Mokhtar, Adrar Province, Algeria

Public forecast

Using degrees Celsius for public forecast. Weather courtesy of forecast.io.

Current aviation weather report (METAR) for Bordj Badji Mokhtar Airport

Retrieved 2019/10/19 18:00 UTC (41 minutes ago):

DATM 191800Z 32005KT CAVOK 35/04 Q1008

Aviation forecast (TAF) for Bordj Badji Mokhtar Airport

Forecast is more than 12 hours old.

Retrieved 2019/04/23 06:48 UTC (6 months ago):

TAF DATM 230500Z 2306/2318 CNL